sensor_id;sensor_type;location;lat;lon;timestamp;pressure;altitude;pressure_sealevel;temperature;humidity
21234;BME280;10774;42.178;26.578;2023-02-08T00:02:05;101782.06;;;-1.57;72.83
21234;BME280;10774;42.178;26.578;2023-02-08T00:04:30;101799.22;;;-1.24;72.19
21234;BME280;10774;42.178;26.578;2023-02-08T00:06:55;101802.97;;;-1.07;71.92
21234;BME280;10774;42.178;26.578;2023-02-08T00:09:21;101814.72;;;-0.82;69.68
21234;BME280;10774;42.178;26.578;2023-02-08T00:11:46;101827.16;;;-0.72;67.59
21234;BME280;10774;42.178;26.578;2023-02-08T00:14:12;101819.31;;;-0.64;66.56
21234;BME280;10774;42.178;26.578;2023-02-08T00:16:37;101804.19;;;-1.46;66.22
21234;BME280;10774;42.178;26.578;2023-02-08T00:19:03;101800.16;;;-1.21;67.88
21234;BME280;10774;42.178;26.578;2023-02-08T00:21:28;101791.66;;;-1.00;67.49
21234;BME280;10774;42.178;26.578;2023-02-08T00:23:53;101790.88;;;-0.93;66.05
21234;BME280;10774;42.178;26.578;2023-02-08T00:26:19;101790.44;;;-1.25;67.33
21234;BME280;10774;42.178;26.578;2023-02-08T00:28:44;101818.78;;;-1.07;67.51
21234;BME280;10774;42.178;26.578;2023-02-08T00:31:10;101827.78;;;-0.90;68.31
21234;BME280;10774;42.178;26.578;2023-02-08T00:33:35;101822.56;;;-2.02;72.01
21234;BME280;10774;42.178;26.578;2023-02-08T00:36:02;101798.63;;;-1.64;73.16
21234;BME280;10774;42.178;26.578;2023-02-08T00:38:28;101821.94;;;-1.89;73.70
21234;BME280;10774;42.178;26.578;2023-02-08T00:40:54;101813.69;;;-2.07;75.09
21234;BME280;10774;42.178;26.578;2023-02-08T00:43:19;101794.50;;;-2.50;76.74
21234;BME280;10774;42.178;26.578;2023-02-08T00:45:45;101813.56;;;-2.16;77.74
21234;BME280;10774;42.178;26.578;2023-02-08T00:48:10;101812.53;;;-2.24;78.03
21234;BME280;10774;42.178;26.578;2023-02-08T00:50:36;101812.22;;;-1.93;78.42
21234;BME280;10774;42.178;26.578;2023-02-08T00:53:01;101814.94;;;-1.85;77.86
21234;BME280;10774;42.178;26.578;2023-02-08T00:55:27;101825.25;;;-1.47;77.62
21234;BME280;10774;42.178;26.578;2023-02-08T00:57:52;101818.31;;;-1.41;76.79
21234;BME280;10774;42.178;26.578;2023-02-08T01:00:17;101794.78;;;-2.36;78.57
21234;BME280;10774;42.178;26.578;2023-02-08T01:02:43;101766.50;;;-2.95;82.80
21234;BME280;10774;42.178;26.578;2023-02-08T01:05:08;101788.84;;;-2.71;84.44
21234;BME280;10774;42.178;26.578;2023-02-08T01:07:38;101785.09;;;-2.84;86.21
21234;BME280;10774;42.178;26.578;2023-02-08T01:10:04;101806.88;;;-2.46;86.51
21234;BME280;10774;42.178;26.578;2023-02-08T01:12:31;101812.63;;;-2.20;85.00
21234;BME280;10774;42.178;26.578;2023-02-08T01:14:56;101807.72;;;-2.47;85.05
21234;BME280;10774;42.178;26.578;2023-02-08T01:17:21;101820.53;;;-2.18;85.74
21234;BME280;10774;42.178;26.578;2023-02-08T01:19:47;101800.81;;;-1.90;84.79
21234;BME280;10774;42.178;26.578;2023-02-08T01:22:12;101810.72;;;-1.75;83.44
21234;BME280;10774;42.178;26.578;2023-02-08T01:24:38;101807.44;;;-1.62;81.78
21234;BME280;10774;42.178;26.578;2023-02-08T01:27:03;101818.47;;;-1.28;81.20
21234;BME280;10774;42.178;26.578;2023-02-08T01:29:28;101809.56;;;-1.38;80.60
21234;BME280;10774;42.178;26.578;2023-02-08T01:31:54;101832.78;;;-1.11;79.60
21234;BME280;10774;42.178;26.578;2023-02-08T01:34:19;101820.66;;;-1.00;79.04
21234;BME280;10774;42.178;26.578;2023-02-08T01:36:45;101817.09;;;-1.02;77.92
21234;BME280;10774;42.178;26.578;2023-02-08T01:39:11;101825.94;;;-0.97;78.24
21234;BME280;10774;42.178;26.578;2023-02-08T01:41:39;101815.25;;;-1.08;78.22
21234;BME280;10774;42.178;26.578;2023-02-08T01:46:39;101837.66;;;-0.75;78.10
21234;BME280;10774;42.178;26.578;2023-02-08T01:49:11;101813.03;;;-0.77;78.41
21234;BME280;10774;42.178;26.578;2023-02-08T01:52:05;101814.84;;;-0.73;77.55
21234;BME280;10774;42.178;26.578;2023-02-08T01:54:34;101828.69;;;-0.89;77.80
21234;BME280;10774;42.178;26.578;2023-02-08T01:57:01;101825.41;;;-0.71;77.76
21234;BME280;10774;42.178;26.578;2023-02-08T01:59:33;101836.84;;;-0.69;78.02
21234;BME280;10774;42.178;26.578;2023-02-08T02:02:01;101841.28;;;-0.68;78.11
21234;BME280;10774;42.178;26.578;2023-02-08T02:04:27;101828.59;;;-0.95;77.89
21234;BME280;10774;42.178;26.578;2023-02-08T02:06:56;101846.16;;;-0.97;79.25
21234;BME280;10774;42.178;26.578;2023-02-08T02:12:26;101835.97;;;-1.34;83.27
21234;BME280;10774;42.178;26.578;2023-02-08T02:14:52;101836.19;;;-1.18;82.65
21234;BME280;10774;42.178;26.578;2023-02-08T02:17:18;101834.56;;;-1.10;81.45
21234;BME280;10774;42.178;26.578;2023-02-08T02:19:56;101858.06;;;-1.25;82.62
21234;BME280;10774;42.178;26.578;2023-02-08T02:44:22;101859.56;;;-2.41;93.08
21234;BME280;10774;42.178;26.578;2023-02-08T02:46:57;101837.91;;;-2.70;94.04
21234;BME280;10774;42.178;26.578;2023-02-08T02:49:26;101859.22;;;-2.58;95.10
21234;BME280;10774;42.178;26.578;2023-02-08T02:54:52;101838.31;;;-2.52;94.07
21234;BME280;10774;42.178;26.578;2023-02-08T02:57:24;101857.03;;;-2.35;94.02
21234;BME280;10774;42.178;26.578;2023-02-08T02:59:51;101863.19;;;-2.34;93.79
21234;BME280;10774;42.178;26.578;2023-02-08T03:02:16;101866.31;;;-2.08;93.58
21234;BME280;10774;42.178;26.578;2023-02-08T03:04:48;101869.91;;;-2.05;93.78
21234;BME280;10774;42.178;26.578;2023-02-08T03:07:49;101870.50;;;-2.20;93.43
21234;BME280;10774;42.178;26.578;2023-02-08T03:15:37;101855.22;;;-1.91;91.68
21234;BME280;10774;42.178;26.578;2023-02-08T03:29:47;101894.69;;;-1.91;91.99
21234;BME280;10774;42.178;26.578;2023-02-08T03:32:20;101886.38;;;-1.64;91.68
21234;BME280;10774;42.178;26.578;2023-02-08T03:37:20;101888.78;;;-1.79;93.34
21234;BME280;10774;42.178;26.578;2023-02-08T03:39:49;101874.88;;;-1.70;93.12
21234;BME280;10774;42.178;26.578;2023-02-08T03:42:22;101883.97;;;-2.01;94.16
21234;BME280;10774;42.178;26.578;2023-02-08T03:45:15;101907.53;;;-1.59;93.76
21234;BME280;10774;42.178;26.578;2023-02-08T03:47:44;101910.56;;;-1.88;94.64
21234;BME280;10774;42.178;26.578;2023-02-08T03:50:13;101898.50;;;-1.75;95.17
21234;BME280;10774;42.178;26.578;2023-02-08T03:52:45;101898.75;;;-2.08;95.61
21234;BME280;10774;42.178;26.578;2023-02-08T03:55:29;101903.56;;;-1.86;95.60
21234;BME280;10774;42.178;26.578;2023-02-08T03:57:58;101921.97;;;-1.86;95.85
21234;BME280;10774;42.178;26.578;2023-02-08T04:00:29;101889.22;;;-2.03;96.70
21234;BME280;10774;42.178;26.578;2023-02-08T04:03:14;101912.44;;;-1.80;96.55
21234;BME280;10774;42.178;26.578;2023-02-08T04:05:41;101899.63;;;-1.61;95.66
21234;BME280;10774;42.178;26.578;2023-02-08T04:08:07;101917.63;;;-1.35;94.94
21234;BME280;10774;42.178;26.578;2023-02-08T04:10:32;101915.06;;;-1.30;93.60
21234;BME280;10774;42.178;26.578;2023-02-08T04:12:58;101908.28;;;-1.68;95.24
21234;BME280;10774;42.178;26.578;2023-02-08T04:15:23;101914.13;;;-1.84;96.45
21234;BME280;10774;42.178;26.578;2023-02-08T04:17:52;101917.34;;;-1.50;95.77
21234;BME280;10774;42.178;26.578;2023-02-08T04:20:17;101906.94;;;-1.94;96.32
21234;BME280;10774;42.178;26.578;2023-02-08T04:22:43;101922.63;;;-1.99;98.75
21234;BME280;10774;42.178;26.578;2023-02-08T04:25:08;101927.78;;;-2.05;99.29
21234;BME280;10774;42.178;26.578;2023-02-08T04:27:33;101928.78;;;-1.98;99.63
21234;BME280;10774;42.178;26.578;2023-02-08T04:29:59;101916.41;;;-2.02;98.98
21234;BME280;10774;42.178;26.578;2023-02-08T04:32:24;101903.31;;;-1.99;98.36
21234;BME280;10774;42.178;26.578;2023-02-08T04:34:50;101939.53;;;-1.86;98.46
21234;BME280;10774;42.178;26.578;2023-02-08T04:37:15;101934.13;;;-1.94;99.26
21234;BME280;10774;42.178;26.578;2023-02-08T04:39:40;101951.97;;;-1.77;99.31
21234;BME280;10774;42.178;26.578;2023-02-08T04:42:07;101957.22;;;-1.79;99.20
21234;BME280;10774;42.178;26.578;2023-02-08T04:44:32;101947.09;;;-2.03;99.50
21234;BME280;10774;42.178;26.578;2023-02-08T04:46:58;101953.91;;;-2.14;100.00
21234;BME280;10774;42.178;26.578;2023-02-08T04:49:24;101961.69;;;-2.20;100.00
21234;BME280;10774;42.178;26.578;2023-02-08T04:51:49;101971.84;;;-1.95;100.00
21234;BME280;10774;42.178;26.578;2023-02-08T04:54:15;101978.31;;;-1.77;99.87
21234;BME280;10774;42.178;26.578;2023-02-08T04:56:40;101991.31;;;-1.85;99.14
21234;BME280;10774;42.178;26.578;2023-02-08T04:59:06;101971.41;;;-2.16;99.86
21234;BME280;10774;42.178;26.578;2023-02-08T05:01:31;101992.81;;;-1.98;100.00
21234;BME280;10774;42.178;26.578;2023-02-08T05:03:57;101993.16;;;-1.79;100.00
21234;BME280;10774;42.178;26.578;2023-02-08T05:06:22;102004.00;;;-1.64;100.00
21234;BME280;10774;42.178;26.578;2023-02-08T05:08:48;101982.94;;;-1.64;99.24
21234;BME280;10774;42.178;26.578;2023-02-08T05:11:21;101996.78;;;-1.74;100.00
21234;BME280;10774;42.178;26.578;2023-02-08T05:13:48;102004.06;;;-1.61;99.85
21234;BME280;10774;42.178;26.578;2023-02-08T05:16:13;101979.22;;;-1.75;99.68
21234;BME280;10774;42.178;26.578;2023-02-08T05:18:39;102015.72;;;-1.48;99.84
21234;BME280;10774;42.178;26.578;2023-02-08T05:21:05;101975.97;;;-1.62;98.66
21234;BME280;10774;42.178;26.578;2023-02-08T05:23:30;102009.91;;;-1.30;96.70
21234;BME280;10774;42.178;26.578;2023-02-08T05:25:56;102022.13;;;-1.33;94.02
21234;BME280;10774;42.178;26.578;2023-02-08T05:28:22;102027.53;;;-1.26;93.57
21234;BME280;10774;42.178;26.578;2023-02-08T05:30:47;102039.00;;;-1.24;91.36
21234;BME280;10774;42.178;26.578;2023-02-08T05:33:13;102028.19;;;-1.38;90.91
21234;BME280;10774;42.178;26.578;2023-02-08T05:35:38;102029.16;;;-1.33;89.60
21234;BME280;10774;42.178;26.578;2023-02-08T05:38:04;102035.44;;;-1.26;88.73
21234;BME280;10774;42.178;26.578;2023-02-08T05:40:31;102032.03;;;-1.21;88.34
21234;BME280;10774;42.178;26.578;2023-02-08T05:42:56;102040.84;;;-1.19;87.91
21234;BME280;10774;42.178;26.578;2023-02-08T05:45:22;102046.09;;;-1.19;86.98
21234;BME280;10774;42.178;26.578;2023-02-08T05:47:47;102052.53;;;-1.03;85.79
21234;BME280;10774;42.178;26.578;2023-02-08T05:50:13;102055.69;;;-1.22;84.90
21234;BME280;10774;42.178;26.578;2023-02-08T05:52:39;102062.97;;;-1.09;86.47
21234;BME280;10774;42.178;26.578;2023-02-08T05:55:05;102047.25;;;-1.04;85.11
21234;BME280;10774;42.178;26.578;2023-02-08T05:57:31;102039.69;;;-1.33;82.57
21234;BME280;10774;42.178;26.578;2023-02-08T05:59:56;102064.13;;;-1.42;81.64
21234;BME280;10774;42.178;26.578;2023-02-08T06:02:22;102072.84;;;-1.46;80.43
21234;BME280;10774;42.178;26.578;2023-02-08T06:04:47;102044.25;;;-1.71;79.50
21234;BME280;10774;42.178;26.578;2023-02-08T06:07:12;102058.97;;;-1.79;80.00
21234;BME280;10774;42.178;26.578;2023-02-08T06:09:38;102068.03;;;-1.67;78.34
21234;BME280;10774;42.178;26.578;2023-02-08T06:12:03;102063.22;;;-1.88;78.03
21234;BME280;10774;42.178;26.578;2023-02-08T06:14:29;102076.97;;;-1.59;78.31
21234;BME280;10774;42.178;26.578;2023-02-08T06:16:54;102083.97;;;-1.59;76.78
21234;BME280;10774;42.178;26.578;2023-02-08T06:19:20;102077.91;;;-1.56;77.01
21234;BME280;10774;42.178;26.578;2023-02-08T06:21:45;102074.31;;;-1.60;75.93
21234;BME280;10774;42.178;26.578;2023-02-08T06:24:11;102078.88;;;-1.51;75.41
21234;BME280;10774;42.178;26.578;2023-02-08T06:26:38;102083.97;;;-1.59;75.81
21234;BME280;10774;42.178;26.578;2023-02-08T06:29:03;102086.59;;;-1.59;75.46
21234;BME280;10774;42.178;26.578;2023-02-08T06:31:29;102092.19;;;-1.44;73.99
21234;BME280;10774;42.178;26.578;2023-02-08T06:33:54;102083.19;;;-1.55;74.48
21234;BME280;10774;42.178;26.578;2023-02-08T06:36:19;102103.44;;;-1.52;72.26
21234;BME280;10774;42.178;26.578;2023-02-08T06:38:45;102090.06;;;-1.63;71.08
21234;BME280;10774;42.178;26.578;2023-02-08T06:41:10;102087.56;;;-1.55;70.62
21234;BME280;10774;42.178;26.578;2023-02-08T06:43:36;102095.69;;;-1.45;70.17
21234;BME280;10774;42.178;26.578;2023-02-08T06:46:01;102096.63;;;-1.41;68.94
21234;BME280;10774;42.178;26.578;2023-02-08T06:48:29;102127.78;;;-1.20;67.20
21234;BME280;10774;42.178;26.578;2023-02-08T06:50:55;102086.19;;;-1.37;65.90
21234;BME280;10774;42.178;26.578;2023-02-08T06:53:20;102121.81;;;-1.10;65.28
21234;BME280;10774;42.178;26.578;2023-02-08T06:55:49;102111.59;;;-0.93;65.50
21234;BME280;10774;42.178;26.578;2023-02-08T06:58:15;102135.50;;;-1.29;65.00
21234;BME280;10774;42.178;26.578;2023-02-08T07:00:41;102111.72;;;-1.33;64.24
21234;BME280;10774;42.178;26.578;2023-02-08T07:03:08;102122.72;;;-1.08;62.58
21234;BME280;10774;42.178;26.578;2023-02-08T07:05:34;102132.50;;;-1.01;63.26
21234;BME280;10774;42.178;26.578;2023-02-08T07:08:00;102132.66;;;-1.39;61.92
21234;BME280;10774;42.178;26.578;2023-02-08T07:10:25;102145.88;;;-1.37;63.11
21234;BME280;10774;42.178;26.578;2023-02-08T07:12:51;102130.91;;;-0.94;64.06
21234;BME280;10774;42.178;26.578;2023-02-08T07:15:16;102144.13;;;-0.90;61.27
21234;BME280;10774;42.178;26.578;2023-02-08T07:17:42;102153.38;;;-0.66;61.99
21234;BME280;10774;42.178;26.578;2023-02-08T07:20:08;102129.47;;;-0.74;61.21
21234;BME280;10774;42.178;26.578;2023-02-08T07:22:33;102141.19;;;-1.08;60.34
21234;BME280;10774;42.178;26.578;2023-02-08T07:24:59;102164.78;;;-1.14;62.08
21234;BME280;10774;42.178;26.578;2023-02-08T07:27:24;102143.47;;;-1.26;63.06
21234;BME280;10774;42.178;26.578;2023-02-08T07:29:50;102151.22;;;-1.33;62.45
21234;BME280;10774;42.178;26.578;2023-02-08T07:32:15;102171.53;;;-1.28;61.27
21234;BME280;10774;42.178;26.578;2023-02-08T07:34:41;102151.41;;;-1.23;62.40
21234;BME280;10774;42.178;26.578;2023-02-08T07:37:06;102191.19;;;-1.11;61.53
21234;BME280;10774;42.178;26.578;2023-02-08T07:39:32;102172.56;;;-1.20;61.39
21234;BME280;10774;42.178;26.578;2023-02-08T07:41:58;102196.75;;;-1.40;61.54
21234;BME280;10774;42.178;26.578;2023-02-08T07:44:23;102182.88;;;-1.73;63.48
21234;BME280;10774;42.178;26.578;2023-02-08T07:46:49;102186.34;;;-1.74;62.40
21234;BME280;10774;42.178;26.578;2023-02-08T07:49:15;102197.94;;;-1.25;63.04
21234;BME280;10774;42.178;26.578;2023-02-08T07:51:40;102168.41;;;-1.09;62.05
21234;BME280;10774;42.178;26.578;2023-02-08T07:54:06;102186.06;;;-1.05;62.14
21234;BME280;10774;42.178;26.578;2023-02-08T07:56:31;102190.16;;;-1.60;62.58
21234;BME280;10774;42.178;26.578;2023-02-08T07:58:57;102195.97;;;-1.36;61.79
21234;BME280;10774;42.178;26.578;2023-02-08T08:01:22;102182.59;;;-1.01;60.55
21234;BME280;10774;42.178;26.578;2023-02-08T08:03:49;102177.66;;;-1.70;58.85
21234;BME280;10774;42.178;26.578;2023-02-08T08:06:15;102169.06;;;-1.63;58.84
21234;BME280;10774;42.178;26.578;2023-02-08T08:08:41;102173.03;;;-1.41;60.61
21234;BME280;10774;42.178;26.578;2023-02-08T08:11:11;102168.97;;;-0.78;58.52
21234;BME280;10774;42.178;26.578;2023-02-08T08:13:36;102186.00;;;-0.60;57.69
21234;BME280;10774;42.178;26.578;2023-02-08T08:16:02;102184.31;;;-0.58;57.13
21234;BME280;10774;42.178;26.578;2023-02-08T08:18:27;102155.94;;;-1.16;59.09
21234;BME280;10774;42.178;26.578;2023-02-08T08:20:53;102172.41;;;-0.83;58.52
21234;BME280;10774;42.178;26.578;2023-02-08T08:23:18;102149.47;;;-0.87;58.90
21234;BME280;10774;42.178;26.578;2023-02-08T08:25:44;102178.72;;;-0.21;58.44
21234;BME280;10774;42.178;26.578;2023-02-08T08:28:09;102186.50;;;-0.81;58.12
21234;BME280;10774;42.178;26.578;2023-02-08T08:30:35;102186.31;;;-0.90;57.50
21234;BME280;10774;42.178;26.578;2023-02-08T08:33:00;102190.41;;;-0.60;58.26
21234;BME280;10774;42.178;26.578;2023-02-08T08:35:26;102180.72;;;-0.08;56.91
21234;BME280;10774;42.178;26.578;2023-02-08T08:37:51;102182.59;;;-0.54;57.35
21234;BME280;10774;42.178;26.578;2023-02-08T08:40:17;102170.66;;;-0.84;57.67
21234;BME280;10774;42.178;26.578;2023-02-08T08:42:42;102181.97;;;-0.89;57.69
21234;BME280;10774;42.178;26.578;2023-02-08T08:45:08;102187.19;;;-0.91;58.51
21234;BME280;10774;42.178;26.578;2023-02-08T08:47:34;102184.41;;;-1.00;57.93
21234;BME280;10774;42.178;26.578;2023-02-08T08:49:59;102189.88;;;-0.89;58.93
21234;BME280;10774;42.178;26.578;2023-02-08T08:52:25;102185.59;;;-0.84;58.15
21234;BME280;10774;42.178;26.578;2023-02-08T08:54:50;102182.47;;;-0.62;58.14
21234;BME280;10774;42.178;26.578;2023-02-08T08:57:16;102210.31;;;-0.76;57.91
21234;BME280;10774;42.178;26.578;2023-02-08T08:59:41;102181.19;;;-0.84;57.93
21234;BME280;10774;42.178;26.578;2023-02-08T09:02:10;102203.88;;;-0.43;55.90
21234;BME280;10774;42.178;26.578;2023-02-08T09:04:36;102204.63;;;0.01;56.24
21234;BME280;10774;42.178;26.578;2023-02-08T09:07:01;102202.88;;;-0.50;55.23
21234;BME280;10774;42.178;26.578;2023-02-08T09:09:26;102209.06;;;0.05;55.95
21234;BME280;10774;42.178;26.578;2023-02-08T09:11:52;102199.19;;;-0.10;55.56
21234;BME280;10774;42.178;26.578;2023-02-08T09:14:17;102203.78;;;0.05;54.12
21234;BME280;10774;42.178;26.578;2023-02-08T09:16:43;102210.03;;;0.72;53.26
21234;BME280;10774;42.178;26.578;2023-02-08T09:19:12;102215.28;;;0.69;54.43
21234;BME280;10774;42.178;26.578;2023-02-08T09:21:39;102178.19;;;0.63;54.14
21234;BME280;10774;42.178;26.578;2023-02-08T09:24:05;102217.75;;;-0.05;54.22
21234;BME280;10774;42.178;26.578;2023-02-08T09:26:30;102225.44;;;-0.67;55.66
21234;BME280;10774;42.178;26.578;2023-02-08T09:28:56;102205.66;;;-0.91;56.28
21234;BME280;10774;42.178;26.578;2023-02-08T09:31:26;102161.34;;;-1.10;56.83
21234;BME280;10774;42.178;26.578;2023-02-08T09:33:54;102209.56;;;-0.70;57.07
21234;BME280;10774;42.178;26.578;2023-02-08T09:36:22;102208.22;;;-0.47;56.31
21234;BME280;10774;42.178;26.578;2023-02-08T09:38:48;102190.50;;;-0.54;55.82
21234;BME280;10774;42.178;26.578;2023-02-08T09:44:16;102205.13;;;-0.21;55.20
21234;BME280;10774;42.178;26.578;2023-02-08T09:47:13;102206.53;;;0.11;55.16
21234;BME280;10774;42.178;26.578;2023-02-08T09:49:39;102215.00;;;0.48;53.96
21234;BME280;10774;42.178;26.578;2023-02-08T09:52:10;102206.19;;;0.49;54.39
21234;BME280;10774;42.178;26.578;2023-02-08T09:54:44;102214.00;;;0.40;54.52
21234;BME280;10774;42.178;26.578;2023-02-08T09:57:15;102200.72;;;0.37;54.48
21234;BME280;10774;42.178;26.578;2023-02-08T09:59:55;102219.72;;;0.73;53.95
21234;BME280;10774;42.178;26.578;2023-02-08T10:02:26;102216.69;;;0.43;54.72
21234;BME280;10774;42.178;26.578;2023-02-08T10:05:05;102213.03;;;0.33;55.30
21234;BME280;10774;42.178;26.578;2023-02-08T10:07:32;102187.09;;;0.06;55.76
21234;BME280;10774;42.178;26.578;2023-02-08T10:10:04;102205.69;;;0.12;56.54
21234;BME280;10774;42.178;26.578;2023-02-08T10:35:58;102169.59;;;-0.93;59.30
21234;BME280;10774;42.178;26.578;2023-02-08T10:38:27;102153.53;;;-0.57;59.23
21234;BME280;10774;42.178;26.578;2023-02-08T10:40:57;102176.88;;;-0.29;58.05
21234;BME280;10774;42.178;26.578;2023-02-08T10:51:29;102162.78;;;-0.31;56.87
21234;BME280;10774;42.178;26.578;2023-02-08T10:53:55;102156.88;;;-0.14;57.05
21234;BME280;10774;42.178;26.578;2023-02-08T10:59:12;102161.53;;;0.70;55.09
21234;BME280;10774;42.178;26.578;2023-02-08T11:01:43;102160.25;;;0.38;55.03
21234;BME280;10774;42.178;26.578;2023-02-08T11:04:11;102144.81;;;0.73;55.70
21234;BME280;10774;42.178;26.578;2023-02-08T11:06:39;102171.03;;;0.53;55.53
21234;BME280;10774;42.178;26.578;2023-02-08T11:09:05;102161.97;;;0.36;56.12
21234;BME280;10774;42.178;26.578;2023-02-08T11:11:38;102158.91;;;0.70;54.86
21234;BME280;10774;42.178;26.578;2023-02-08T11:14:12;102147.81;;;0.31;55.50
21234;BME280;10774;42.178;26.578;2023-02-08T11:16:40;102151.41;;;0.36;55.62
21234;BME280;10774;42.178;26.578;2023-02-08T11:19:20;102141.78;;;0.41;55.52
21234;BME280;10774;42.178;26.578;2023-02-08T11:21:49;102131.41;;;0.55;55.30
21234;BME280;10774;42.178;26.578;2023-02-08T11:26:53;102140.75;;;1.01;54.81
21234;BME280;10774;42.178;26.578;2023-02-08T11:29:28;102109.41;;;1.45;54.23
21234;BME280;10774;42.178;26.578;2023-02-08T11:34:30;102133.53;;;1.90;52.21
21234;BME280;10774;42.178;26.578;2023-02-08T11:36:58;102122.50;;;1.31;53.13
21234;BME280;10774;42.178;26.578;2023-02-08T11:42:17;102139.75;;;0.20;54.91
21234;BME280;10774;42.178;26.578;2023-02-08T11:44:44;102123.09;;;0.25;55.47
21234;BME280;10774;42.178;26.578;2023-02-08T11:47:15;102097.44;;;0.91;54.54
21234;BME280;10774;42.178;26.578;2023-02-08T11:49:43;102124.41;;;1.45;53.39
21234;BME280;10774;42.178;26.578;2023-02-08T11:52:35;102125.47;;;0.75;53.35
21234;BME280;10774;42.178;26.578;2023-02-08T11:55:22;102104.91;;;0.48;53.96
21234;BME280;10774;42.178;26.578;2023-02-08T11:57:54;102128.72;;;1.37;53.58
21234;BME280;10774;42.178;26.578;2023-02-08T12:00:24;102112.94;;;1.47;52.93
21234;BME280;10774;42.178;26.578;2023-02-08T12:03:00;102132.28;;;1.42;53.62
21234;BME280;10774;42.178;26.578;2023-02-08T12:08:26;102132.50;;;0.73;53.52
21234;BME280;10774;42.178;26.578;2023-02-08T12:16:32;102129.28;;;2.13;50.67
21234;BME280;10774;42.178;26.578;2023-02-08T12:19:36;102137.41;;;2.44;49.58
21234;BME280;10774;42.178;26.578;2023-02-08T12:22:12;102136.25;;;1.99;51.70
21234;BME280;10774;42.178;26.578;2023-02-08T12:30:34;102133.50;;;1.83;52.12
21234;BME280;10774;42.178;26.578;2023-02-08T12:39:28;102132.25;;;1.34;52.16
21234;BME280;10774;42.178;26.578;2023-02-08T12:42:27;102110.31;;;1.49;51.66
21234;BME280;10774;42.178;26.578;2023-02-08T12:50:35;102132.28;;;1.39;51.83
21234;BME280;10774;42.178;26.578;2023-02-08T12:55:37;102133.41;;;1.68;52.07
21234;BME280;10774;42.178;26.578;2023-02-08T12:58:30;102140.88;;;2.36;50.80
21234;BME280;10774;42.178;26.578;2023-02-08T13:01:10;102123.34;;;2.66;50.05
21234;BME280;10774;42.178;26.578;2023-02-08T13:03:46;102127.63;;;2.36;50.54
21234;BME280;10774;42.178;26.578;2023-02-08T13:06:20;102127.88;;;1.41;51.86
21234;BME280;10774;42.178;26.578;2023-02-08T13:11:19;102120.78;;;1.37;52.72
21234;BME280;10774;42.178;26.578;2023-02-08T13:14:12;102154.25;;;1.28;53.11
21234;BME280;10774;42.178;26.578;2023-02-08T13:16:51;102134.63;;;1.08;53.59
21234;BME280;10774;42.178;26.578;2023-02-08T13:19:30;102150.28;;;1.82;52.96
21234;BME280;10774;42.178;26.578;2023-02-08T13:21:57;102149.28;;;1.65;52.83
21234;BME280;10774;42.178;26.578;2023-02-08T13:24:38;102138.22;;;1.15;53.14
21234;BME280;10774;42.178;26.578;2023-02-08T13:27:04;102154.94;;;1.11;53.26
21234;BME280;10774;42.178;26.578;2023-02-08T13:29:34;102160.91;;;0.90;53.75
21234;BME280;10774;42.178;26.578;2023-02-08T13:32:08;102148.44;;;0.80;53.61
21234;BME280;10774;42.178;26.578;2023-02-08T13:35:00;102164.78;;;1.22;53.62
21234;BME280;10774;42.178;26.578;2023-02-08T13:37:26;102150.44;;;1.02;53.98
21234;BME280;10774;42.178;26.578;2023-02-08T13:40:05;102172.72;;;1.24;54.05
21234;BME280;10774;42.178;26.578;2023-02-08T13:45:01;102153.97;;;1.04;55.53
21234;BME280;10774;42.178;26.578;2023-02-08T13:47:28;102163.22;;;1.46;55.22
21234;BME280;10774;42.178;26.578;2023-02-08T13:50:00;102164.00;;;1.33;54.98
21234;BME280;10774;42.178;26.578;2023-02-08T13:57:55;102159.72;;;1.50;55.05
21234;BME280;10774;42.178;26.578;2023-02-08T14:03:20;102166.66;;;1.34;55.73
21234;BME280;10774;42.178;26.578;2023-02-08T14:06:03;102175.47;;;1.36;55.70
21234;BME280;10774;42.178;26.578;2023-02-08T14:11:13;102176.63;;;1.67;55.45
21234;BME280;10774;42.178;26.578;2023-02-08T14:13:55;102158.00;;;1.56;55.05
21234;BME280;10774;42.178;26.578;2023-02-08T14:18:53;102183.81;;;0.91;56.65
21234;BME280;10774;42.178;26.578;2023-02-08T14:21:33;102161.91;;;1.01;56.91
21234;BME280;10774;42.178;26.578;2023-02-08T14:24:06;102160.41;;;1.29;56.33
21234;BME280;10774;42.178;26.578;2023-02-08T14:26:32;102176.06;;;1.08;56.68
21234;BME280;10774;42.178;26.578;2023-02-08T14:29:01;102182.00;;;0.85;57.10
21234;BME280;10774;42.178;26.578;2023-02-08T14:31:40;102160.41;;;0.48;57.65
21234;BME280;10774;42.178;26.578;2023-02-08T14:34:20;102172.38;;;0.93;57.91
21234;BME280;10774;42.178;26.578;2023-02-08T14:36:46;102160.78;;;0.81;57.06
21234;BME280;10774;42.178;26.578;2023-02-08T14:41:53;102167.31;;;1.15;57.92
21234;BME280;10774;42.178;26.578;2023-02-08T14:49:56;102165.50;;;0.35;57.69
21234;BME280;10774;42.178;26.578;2023-02-08T14:52:24;102175.31;;;0.43;58.43
21234;BME280;10774;42.178;26.578;2023-02-08T14:55:00;102181.69;;;0.62;58.06
21234;BME280;10774;42.178;26.578;2023-02-08T14:57:31;102186.09;;;0.63;58.54
21234;BME280;10774;42.178;26.578;2023-02-08T15:00:00;102190.44;;;0.57;58.12
21234;BME280;10774;42.178;26.578;2023-02-08T15:02:27;102181.41;;;0.41;59.22
21234;BME280;10774;42.178;26.578;2023-02-08T15:04:57;102177.81;;;0.36;59.04
21234;BME280;10774;42.178;26.578;2023-02-08T15:09:52;102182.28;;;0.40;58.96
21234;BME280;10774;42.178;26.578;2023-02-08T15:12:25;102207.63;;;0.25;60.59
21234;BME280;10774;42.178;26.578;2023-02-08T15:14:56;102173.25;;;-0.34;61.26
21234;BME280;10774;42.178;26.578;2023-02-08T15:17:36;102212.19;;;-0.20;61.66
21234;BME280;10774;42.178;26.578;2023-02-08T15:20:19;102206.84;;;-0.23;61.55
21234;BME280;10774;42.178;26.578;2023-02-08T15:22:45;102211.78;;;-0.45;61.87
21234;BME280;10774;42.178;26.578;2023-02-08T15:25:27;102195.75;;;-0.57;61.77